sensor_id;sensor_type;location;lat;lon;timestamp;P1;durP1;ratioP1;P2;durP2;ratioP2
4278;SDS011;2153;47.744;10.580;2022-10-16T00:01:38;16.30;;;2.27;;
4278;SDS011;2153;47.744;10.580;2022-10-16T00:04:05;11.70;;;1.90;;
4278;SDS011;2153;47.744;10.580;2022-10-16T00:06:32;17.40;;;2.13;;
4278;SDS011;2153;47.744;10.580;2022-10-16T00:09:00;15.93;;;1.90;;
4278;SDS011;2153;47.744;10.580;2022-10-16T00:11:27;22.50;;;3.13;;
4278;SDS011;2153;47.744;10.580;2022-10-16T00:13:58;17.13;;;1.80;;
4278;SDS011;2153;47.744;10.580;2022-10-16T00:16:27;14.73;;;1.70;;
4278;SDS011;2153;47.744;10.580;2022-10-16T00:18:55;16.20;;;1.70;;
4278;SDS011;2153;47.744;10.580;2022-10-16T00:21:22;13.40;;;1.70;;
4278;SDS011;2153;47.744;10.580;2022-10-16T00:23:51;14.90;;;1.97;;
4278;SDS011;2153;47.744;10.580;2022-10-16T00:26:20;11.87;;;1.80;;
4278;SDS011;2153;47.744;10.580;2022-10-16T00:28:47;12.20;;;1.80;;
4278;SDS011;2153;47.744;10.580;2022-10-16T00:31:15;14.43;;;1.90;;
4278;SDS011;2153;47.744;10.580;2022-10-16T00:33:43;12.60;;;1.60;;
4278;SDS011;2153;47.744;10.580;2022-10-16T00:36:11;11.40;;;1.70;;
4278;SDS011;2153;47.744;10.580;2022-10-16T00:38:39;21.43;;;2.40;;
4278;SDS011;2153;47.744;10.580;2022-10-16T00:41:07;15.33;;;1.90;;
4278;SDS011;2153;47.744;10.580;2022-10-16T00:43:39;14.93;;;2.07;;
4278;SDS011;2153;47.744;10.580;2022-10-16T00:46:12;13.50;;;1.73;;
4278;SDS011;2153;47.744;10.580;2022-10-16T00:48:42;11.07;;;1.50;;
4278;SDS011;2153;47.744;10.580;2022-10-16T00:51:14;14.70;;;1.70;;
4278;SDS011;2153;47.744;10.580;2022-10-16T00:53:43;12.17;;;1.50;;
4278;SDS011;2153;47.744;10.580;2022-10-16T00:56:10;11.30;;;1.50;;
4278;SDS011;2153;47.744;10.580;2022-10-16T00:58:39;13.13;;;1.70;;
4278;SDS011;2153;47.744;10.580;2022-10-16T01:01:06;13.40;;;2.20;;
4278;SDS011;2153;47.744;10.580;2022-10-16T01:03:33;11.50;;;1.70;;
4278;SDS011;2153;47.744;10.580;2022-10-16T01:06:06;10.97;;;1.50;;
4278;SDS011;2153;47.744;10.580;2022-10-16T01:08:53;11.93;;;1.80;;
4278;SDS011;2153;47.744;10.580;2022-10-16T01:11:30;13.67;;;1.83;;
4278;SDS011;2153;47.744;10.580;2022-10-16T01:14:06;29.57;;;1.80;;
4278;SDS011;2153;47.744;10.580;2022-10-16T01:16:42;14.07;;;1.80;;
4278;SDS011;2153;47.744;10.580;2022-10-16T01:19:16;15.57;;;2.50;;
4278;SDS011;2153;47.744;10.580;2022-10-16T01:21:52;11.73;;;1.80;;
4278;SDS011;2153;47.744;10.580;2022-10-16T01:24:25;12.63;;;1.60;;
4278;SDS011;2153;47.744;10.580;2022-10-16T01:27:07;11.23;;;1.60;;
4278;SDS011;2153;47.744;10.580;2022-10-16T01:29:37;14.13;;;1.60;;
4278;SDS011;2153;47.744;10.580;2022-10-16T01:32:11;11.13;;;1.63;;
4278;SDS011;2153;47.744;10.580;2022-10-16T01:34:44;13.00;;;2.03;;
4278;SDS011;2153;47.744;10.580;2022-10-16T01:37:16;11.17;;;1.43;;
4278;SDS011;2153;47.744;10.580;2022-10-16T01:39:51;12.07;;;1.60;;
4278;SDS011;2153;47.744;10.580;2022-10-16T01:42:23;10.83;;;1.30;;
4278;SDS011;2153;47.744;10.580;2022-10-16T01:44:54;15.00;;;1.30;;
4278;SDS011;2153;47.744;10.580;2022-10-16T01:47:23;11.53;;;1.33;;
4278;SDS011;2153;47.744;10.580;2022-10-16T01:49:52;11.13;;;1.70;;
4278;SDS011;2153;47.744;10.580;2022-10-16T01:52:22;11.10;;;1.67;;
4278;SDS011;2153;47.744;10.580;2022-10-16T01:54:52;13.27;;;1.57;;
4278;SDS011;2153;47.744;10.580;2022-10-16T01:57:21;19.40;;;1.73;;
4278;SDS011;2153;47.744;10.580;2022-10-16T01:59:51;11.40;;;1.77;;
4278;SDS011;2153;47.744;10.580;2022-10-16T02:02:21;13.90;;;1.77;;
4278;SDS011;2153;47.744;10.580;2022-10-16T02:04:53;11.70;;;1.53;;
4278;SDS011;2153;47.744;10.580;2022-10-16T02:07:24;11.63;;;1.37;;
4278;SDS011;2153;47.744;10.580;2022-10-16T02:09:51;12.80;;;1.67;;
4278;SDS011;2153;47.744;10.580;2022-10-16T02:12:19;14.63;;;1.27;;
4278;SDS011;2153;47.744;10.580;2022-10-16T02:14:52;12.70;;;1.40;;
4278;SDS011;2153;47.744;10.580;2022-10-16T02:17:19;17.00;;;1.70;;
4278;SDS011;2153;47.744;10.580;2022-10-16T02:19:47;11.73;;;1.60;;
4278;SDS011;2153;47.744;10.580;2022-10-16T02:22:18;11.30;;;1.50;;
4278;SDS011;2153;47.744;10.580;2022-10-16T02:24:51;14.07;;;2.27;;
4278;SDS011;2153;47.744;10.580;2022-10-16T02:27:23;10.50;;;1.20;;
4278;SDS011;2153;47.744;10.580;2022-10-16T02:29:58;10.90;;;1.30;;
4278;SDS011;2153;47.744;10.580;2022-10-16T02:32:32;10.73;;;1.33;;
4278;SDS011;2153;47.744;10.580;2022-10-16T02:35:01;12.20;;;1.40;;
4278;SDS011;2153;47.744;10.580;2022-10-16T02:37:28;10.53;;;1.10;;
4278;SDS011;2153;47.744;10.580;2022-10-16T02:39:56;11.23;;;1.10;;
4278;SDS011;2153;47.744;10.580;2022-10-16T02:42:28;10.77;;;1.17;;
4278;SDS011;2153;47.744;10.580;2022-10-16T02:44:58;13.33;;;1.50;;
4278;SDS011;2153;47.744;10.580;2022-10-16T02:47:25;10.83;;;1.10;;
4278;SDS011;2153;47.744;10.580;2022-10-16T02:49:52;12.50;;;1.23;;
4278;SDS011;2153;47.744;10.580;2022-10-16T02:52:19;21.07;;;1.90;;
4278;SDS011;2153;47.744;10.580;2022-10-16T02:54:46;11.20;;;1.10;;
4278;SDS011;2153;47.744;10.580;2022-10-16T02:57:12;14.10;;;1.40;;
4278;SDS011;2153;47.744;10.580;2022-10-16T02:59:41;10.60;;;1.03;;
4278;SDS011;2153;47.744;10.580;2022-10-16T03:02:07;10.90;;;1.30;;
4278;SDS011;2153;47.744;10.580;2022-10-16T03:04:34;14.20;;;1.30;;
4278;SDS011;2153;47.744;10.580;2022-10-16T03:07:01;11.10;;;1.40;;
4278;SDS011;2153;47.744;10.580;2022-10-16T03:09:28;12.70;;;1.50;;
4278;SDS011;2153;47.744;10.580;2022-10-16T03:11:55;12.70;;;1.40;;
4278;SDS011;2153;47.744;10.580;2022-10-16T03:14:22;12.03;;;1.50;;
4278;SDS011;2153;47.744;10.580;2022-10-16T03:16:50;13.27;;;1.40;;
4278;SDS011;2153;47.744;10.580;2022-10-16T03:19:17;13.37;;;1.20;;
4278;SDS011;2153;47.744;10.580;2022-10-16T03:21:44;10.67;;;1.27;;
4278;SDS011;2153;47.744;10.580;2022-10-16T03:24:11;10.60;;;1.17;;
4278;SDS011;2153;47.744;10.580;2022-10-16T03:26:38;11.63;;;1.03;;
4278;SDS011;2153;47.744;10.580;2022-10-16T03:29:05;10.63;;;1.07;;
4278;SDS011;2153;47.744;10.580;2022-10-16T03:31:32;15.23;;;1.50;;
4278;SDS011;2153;47.744;10.580;2022-10-16T03:34:00;11.50;;;1.40;;
4278;SDS011;2153;47.744;10.580;2022-10-16T03:36:27;15.40;;;1.40;;
4278;SDS011;2153;47.744;10.580;2022-10-16T03:38:54;13.40;;;1.30;;
4278;SDS011;2153;47.744;10.580;2022-10-16T03:41:21;10.90;;;1.37;;
4278;SDS011;2153;47.744;10.580;2022-10-16T03:43:48;10.50;;;1.20;;
4278;SDS011;2153;47.744;10.580;2022-10-16T03:46:15;11.23;;;1.50;;
4278;SDS011;2153;47.744;10.580;2022-10-16T03:48:41;13.37;;;1.30;;
4278;SDS011;2153;47.744;10.580;2022-10-16T03:51:10;10.33;;;1.07;;
4278;SDS011;2153;47.744;10.580;2022-10-16T03:53:36;10.70;;;1.17;;
4278;SDS011;2153;47.744;10.580;2022-10-16T03:56:03;10.87;;;1.20;;
4278;SDS011;2153;47.744;10.580;2022-10-16T03:58:30;11.03;;;1.30;;
4278;SDS011;2153;47.744;10.580;2022-10-16T04:00:57;10.17;;;1.00;;
4278;SDS011;2153;47.744;10.580;2022-10-16T04:03:24;10.70;;;1.23;;
4278;SDS011;2153;47.744;10.580;2022-10-16T04:05:51;13.40;;;1.50;;
4278;SDS011;2153;47.744;10.580;2022-10-16T04:08:19;11.63;;;1.20;;
4278;SDS011;2153;47.744;10.580;2022-10-16T04:10:46;10.37;;;1.23;;
4278;SDS011;2153;47.744;10.580;2022-10-16T04:13:13;14.83;;;1.40;;
4278;SDS011;2153;47.744;10.580;2022-10-16T04:15:40;10.70;;;1.30;;
4278;SDS011;2153;47.744;10.580;2022-10-16T04:18:07;10.23;;;1.10;;
4278;SDS011;2153;47.744;10.580;2022-10-16T04:20:34;12.23;;;1.40;;
4278;SDS011;2153;47.744;10.580;2022-10-16T04:23:00;10.70;;;1.20;;
4278;SDS011;2153;47.744;10.580;2022-10-16T04:25:29;10.60;;;1.10;;
4278;SDS011;2153;47.744;10.580;2022-10-16T04:27:56;11.63;;;1.20;;
4278;SDS011;2153;47.744;10.580;2022-10-16T04:30:23;11.27;;;1.40;;
4278;SDS011;2153;47.744;10.580;2022-10-16T04:32:50;11.70;;;1.20;;
4278;SDS011;2153;47.744;10.580;2022-10-16T04:35:17;13.57;;;1.20;;
4278;SDS011;2153;47.744;10.580;2022-10-16T04:37:45;12.67;;;1.37;;
4278;SDS011;2153;47.744;10.580;2022-10-16T04:40:12;10.70;;;1.30;;
4278;SDS011;2153;47.744;10.580;2022-10-16T04:42:41;10.43;;;1.07;;
4278;SDS011;2153;47.744;10.580;2022-10-16T04:45:08;13.10;;;1.20;;
4278;SDS011;2153;47.744;10.580;2022-10-16T04:47:35;11.57;;;1.60;;
4278;SDS011;2153;47.744;10.580;2022-10-16T04:50:02;11.27;;;1.40;;
4278;SDS011;2153;47.744;10.580;2022-10-16T04:52:30;16.03;;;1.63;;
4278;SDS011;2153;47.744;10.580;2022-10-16T04:54:57;11.00;;;1.40;;
4278;SDS011;2153;47.744;10.580;2022-10-16T04:57:26;14.20;;;1.30;;
4278;SDS011;2153;47.744;10.580;2022-10-16T04:59:55;10.77;;;1.40;;
4278;SDS011;2153;47.744;10.580;2022-10-16T05:02:22;11.43;;;1.00;;
4278;SDS011;2153;47.744;10.580;2022-10-16T05:04:48;10.53;;;1.00;;
4278;SDS011;2153;47.744;10.580;2022-10-16T05:07:15;11.93;;;1.37;;
4278;SDS011;2153;47.744;10.580;2022-10-16T05:09:42;11.40;;;1.50;;
4278;SDS011;2153;47.744;10.580;2022-10-16T05:12:09;12.20;;;1.37;;
4278;SDS011;2153;47.744;10.580;2022-10-16T05:14:36;11.00;;;1.47;;
4278;SDS011;2153;47.744;10.580;2022-10-16T05:17:04;12.50;;;1.40;;
4278;SDS011;2153;47.744;10.580;2022-10-16T05:19:31;12.07;;;1.93;;
4278;SDS011;2153;47.744;10.580;2022-10-16T05:21:58;16.67;;;1.43;;
4278;SDS011;2153;47.744;10.580;2022-10-16T05:24:24;12.00;;;1.20;;
4278;SDS011;2153;47.744;10.580;2022-10-16T05:26:51;12.43;;;1.60;;
4278;SDS011;2153;47.744;10.580;2022-10-16T05:29:18;10.90;;;1.40;;
4278;SDS011;2153;47.744;10.580;2022-10-16T05:31:46;22.10;;;1.50;;
4278;SDS011;2153;47.744;10.580;2022-10-16T05:34:14;11.03;;;1.40;;
4278;SDS011;2153;47.744;10.580;2022-10-16T05:36:41;15.17;;;1.33;;
4278;SDS011;2153;47.744;10.580;2022-10-16T05:39:10;13.90;;;1.67;;
4278;SDS011;2153;47.744;10.580;2022-10-16T05:41:37;19.27;;;2.00;;
4278;SDS011;2153;47.744;10.580;2022-10-16T05:44:04;11.00;;;1.60;;
4278;SDS011;2153;47.744;10.580;2022-10-16T05:46:31;11.80;;;1.60;;
4278;SDS011;2153;47.744;10.580;2022-10-16T05:48:58;11.50;;;1.57;;
4278;SDS011;2153;47.744;10.580;2022-10-16T05:51:27;18.47;;;1.67;;
4278;SDS011;2153;47.744;10.580;2022-10-16T05:53:53;10.97;;;1.30;;
4278;SDS011;2153;47.744;10.580;2022-10-16T05:56:20;13.00;;;1.63;;
4278;SDS011;2153;47.744;10.580;2022-10-16T05:58:47;11.30;;;1.40;;
4278;SDS011;2153;47.744;10.580;2022-10-16T06:01:15;12.40;;;1.37;;
4278;SDS011;2153;47.744;10.580;2022-10-16T06:03:42;14.77;;;1.87;;
4278;SDS011;2153;47.744;10.580;2022-10-16T06:06:10;10.80;;;1.37;;
4278;SDS011;2153;47.744;10.580;2022-10-16T06:08:40;13.73;;;1.70;;
4278;SDS011;2153;47.744;10.580;2022-10-16T06:11:08;11.10;;;1.37;;
4278;SDS011;2153;47.744;10.580;2022-10-16T06:13:36;15.77;;;1.40;;
4278;SDS011;2153;47.744;10.580;2022-10-16T06:16:04;16.10;;;1.37;;
4278;SDS011;2153;47.744;10.580;2022-10-16T06:18:31;10.70;;;1.13;;
4278;SDS011;2153;47.744;10.580;2022-10-16T06:20:58;10.80;;;1.10;;
4278;SDS011;2153;47.744;10.580;2022-10-16T06:23:25;11.20;;;1.33;;
4278;SDS011;2153;47.744;10.580;2022-10-16T06:25:55;10.60;;;1.13;;
4278;SDS011;2153;47.744;10.580;2022-10-16T06:28:30;10.20;;;1.00;;
4278;SDS011;2153;47.744;10.580;2022-10-16T06:30:58;12.53;;;1.23;;
4278;SDS011;2153;47.744;10.580;2022-10-16T06:33:25;11.53;;;1.20;;
4278;SDS011;2153;47.744;10.580;2022-10-16T06:35:52;10.57;;;1.10;;
4278;SDS011;2153;47.744;10.580;2022-10-16T06:38:19;14.37;;;1.70;;
4278;SDS011;2153;47.744;10.580;2022-10-16T06:40:45;13.60;;;1.17;;
4278;SDS011;2153;47.744;10.580;2022-10-16T06:43:15;11.33;;;1.50;;
4278;SDS011;2153;47.744;10.580;2022-10-16T06:45:41;18.77;;;1.10;;
4278;SDS011;2153;47.744;10.580;2022-10-16T06:48:08;10.60;;;1.03;;
4278;SDS011;2153;47.744;10.580;2022-10-16T06:50:35;13.23;;;1.37;;
4278;SDS011;2153;47.744;10.580;2022-10-16T06:53:02;13.40;;;2.00;;
4278;SDS011;2153;47.744;10.580;2022-10-16T06:55:29;16.47;;;1.60;;
4278;SDS011;2153;47.744;10.580;2022-10-16T06:57:55;11.53;;;1.47;;
4278;SDS011;2153;47.744;10.580;2022-10-16T07:00:24;10.90;;;1.50;;
4278;SDS011;2153;47.744;10.580;2022-10-16T07:02:54;12.90;;;1.83;;
4278;SDS011;2153;47.744;10.580;2022-10-16T07:05:20;11.57;;;1.80;;
4278;SDS011;2153;47.744;10.580;2022-10-16T07:07:47;18.73;;;1.50;;
4278;SDS011;2153;47.744;10.580;2022-10-16T07:10:14;12.77;;;1.47;;
4278;SDS011;2153;47.744;10.580;2022-10-16T07:12:41;15.23;;;1.20;;
4278;SDS011;2153;47.744;10.580;2022-10-16T07:15:10;10.60;;;1.10;;
4278;SDS011;2153;47.744;10.580;2022-10-16T07:17:39;14.17;;;1.20;;
4278;SDS011;2153;47.744;10.580;2022-10-16T07:20:06;13.30;;;1.20;;
4278;SDS011;2153;47.744;10.580;2022-10-16T07:22:33;13.93;;;1.40;;
4278;SDS011;2153;47.744;10.580;2022-10-16T07:25:00;11.23;;;1.43;;
4278;SDS011;2153;47.744;10.580;2022-10-16T07:27:27;12.70;;;1.33;;
4278;SDS011;2153;47.744;10.580;2022-10-16T07:29:54;13.57;;;1.60;;
4278;SDS011;2153;47.744;10.580;2022-10-16T07:32:21;10.70;;;1.20;;
4278;SDS011;2153;47.744;10.580;2022-10-16T07:34:51;12.87;;;1.10;;
4278;SDS011;2153;47.744;10.580;2022-10-16T07:37:20;12.77;;;1.77;;
4278;SDS011;2153;47.744;10.580;2022-10-16T07:39:47;10.90;;;1.27;;
4278;SDS011;2153;47.744;10.580;2022-10-16T07:42:14;11.73;;;1.33;;
4278;SDS011;2153;47.744;10.580;2022-10-16T07:44:41;10.70;;;1.07;;
4278;SDS011;2153;47.744;10.580;2022-10-16T07:47:09;11.57;;;1.30;;
4278;SDS011;2153;47.744;10.580;2022-10-16T07:49:36;16.93;;;1.23;;
4278;SDS011;2153;47.744;10.580;2022-10-16T07:52:04;11.63;;;1.30;;
4278;SDS011;2153;47.744;10.580;2022-10-16T07:54:31;11.07;;;1.20;;
4278;SDS011;2153;47.744;10.580;2022-10-16T07:56:58;14.00;;;1.20;;
4278;SDS011;2153;47.744;10.580;2022-10-16T07:59:24;15.60;;;1.20;;
4278;SDS011;2153;47.744;10.580;2022-10-16T08:01:51;11.07;;;1.10;;
4278;SDS011;2153;47.744;10.580;2022-10-16T08:04:18;11.20;;;1.33;;
4278;SDS011;2153;47.744;10.580;2022-10-16T08:06:45;12.00;;;1.40;;
4278;SDS011;2153;47.744;10.580;2022-10-16T08:09:13;10.30;;;1.00;;
4278;SDS011;2153;47.744;10.580;2022-10-16T08:11:40;11.23;;;1.10;;
4278;SDS011;2153;47.744;10.580;2022-10-16T08:14:07;12.83;;;1.40;;
4278;SDS011;2153;47.744;10.580;2022-10-16T08:16:33;11.93;;;1.33;;
4278;SDS011;2153;47.744;10.580;2022-10-16T08:19:00;11.40;;;1.30;;
4278;SDS011;2153;47.744;10.580;2022-10-16T08:21:27;11.03;;;1.23;;
4278;SDS011;2153;47.744;10.580;2022-10-16T08:23:54;11.07;;;1.17;;
4278;SDS011;2153;47.744;10.580;2022-10-16T08:26:22;11.30;;;1.27;;
4278;SDS011;2153;47.744;10.580;2022-10-16T08:28:49;11.00;;;1.10;;
4278;SDS011;2153;47.744;10.580;2022-10-16T08:31:16;11.30;;;1.20;;
4278;SDS011;2153;47.744;10.580;2022-10-16T08:33:44;14.43;;;1.30;;
4278;SDS011;2153;47.744;10.580;2022-10-16T08:36:12;12.30;;;1.27;;
4278;SDS011;2153;47.744;10.580;2022-10-16T08:38:39;11.20;;;1.03;;
4278;SDS011;2153;47.744;10.580;2022-10-16T08:41:15;12.33;;;1.10;;
4278;SDS011;2153;47.744;10.580;2022-10-16T08:46:50;13.60;;;1.60;;
4278;SDS011;2153;47.744;10.580;2022-10-16T08:49:21;13.25;;;1.10;;
4278;SDS011;2153;47.744;10.580;2022-10-16T08:51:49;11.30;;;1.20;;
4278;SDS011;2153;47.744;10.580;2022-10-16T08:54:22;11.40;;;1.00;;
4278;SDS011;2153;47.744;10.580;2022-10-16T08:56:54;11.40;;;1.23;;
4278;SDS011;2153;47.744;10.580;2022-10-16T08:59:23;12.53;;;0.90;;
4278;SDS011;2153;47.744;10.580;2022-10-16T09:01:50;11.80;;;1.10;;
4278;SDS011;2153;47.744;10.580;2022-10-16T09:07:25;11.70;;;0.77;;
4278;SDS011;2153;47.744;10.580;2022-10-16T09:10:02;12.47;;;1.10;;
4278;SDS011;2153;47.744;10.580;2022-10-16T09:12:39;13.03;;;1.30;;
4278;SDS011;2153;47.744;10.580;2022-10-16T09:15:20;10.47;;;0.90;;
4278;SDS011;2153;47.744;10.580;2022-10-16T09:17:56;10.33;;;0.90;;
4278;SDS011;2153;47.744;10.580;2022-10-16T09:20:29;12.50;;;0.90;;
4278;SDS011;2153;47.744;10.580;2022-10-16T09:23:08;11.43;;;1.00;;
4278;SDS011;2153;47.744;10.580;2022-10-16T09:25:42;10.50;;;0.93;;
4278;SDS011;2153;47.744;10.580;2022-10-16T09:28:10;11.20;;;1.20;;
4278;SDS011;2153;47.744;10.580;2022-10-16T09:30:39;11.00;;;0.80;;
4278;SDS011;2153;47.744;10.580;2022-10-16T09:33:06;10.77;;;1.13;;
4278;SDS011;2153;47.744;10.580;2022-10-16T09:35:36;11.57;;;1.07;;
4278;SDS011;2153;47.744;10.580;2022-10-16T09:38:05;12.93;;;1.17;;
4278;SDS011;2153;47.744;10.580;2022-10-16T09:40:33;10.97;;;1.07;;
4278;SDS011;2153;47.744;10.580;2022-10-16T09:43:03;11.90;;;1.47;;
4278;SDS011;2153;47.744;10.580;2022-10-16T09:45:40;11.00;;;1.10;;
4278;SDS011;2153;47.744;10.580;2022-10-16T09:48:11;11.90;;;1.03;;
4278;SDS011;2153;47.744;10.580;2022-10-16T09:50:39;11.13;;;1.10;;
4278;SDS011;2153;47.744;10.580;2022-10-16T09:53:08;10.87;;;1.00;;
4278;SDS011;2153;47.744;10.580;2022-10-16T09:55:47;11.20;;;1.10;;
4278;SDS011;2153;47.744;10.580;2022-10-16T09:58:15;10.80;;;0.90;;
4278;SDS011;2153;47.744;10.580;2022-10-16T10:00:48;12.17;;;1.00;;
4278;SDS011;2153;47.744;10.580;2022-10-16T10:03:20;14.10;;;1.10;;
4278;SDS011;2153;47.744;10.580;2022-10-16T10:05:59;10.80;;;1.07;;
4278;SDS011;2153;47.744;10.580;2022-10-16T10:08:33;11.63;;;1.10;;
4278;SDS011;2153;47.744;10.580;2022-10-16T10:10:59;10.63;;;1.00;;
4278;SDS011;2153;47.744;10.580;2022-10-16T10:13:26;10.70;;;1.03;;
4278;SDS011;2153;47.744;10.580;2022-10-16T10:15:54;10.70;;;1.10;;
4278;SDS011;2153;47.744;10.580;2022-10-16T10:18:22;11.40;;;1.00;;
4278;SDS011;2153;47.744;10.580;2022-10-16T10:20:56;10.90;;;1.10;;
4278;SDS011;2153;47.744;10.580;2022-10-16T10:23:25;10.33;;;1.10;;
4278;SDS011;2153;47.744;10.580;2022-10-16T10:25:53;10.50;;;1.10;;
4278;SDS011;2153;47.744;10.580;2022-10-16T10:28:32;12.13;;;1.40;;
4278;SDS011;2153;47.744;10.580;2022-10-16T10:31:14;10.63;;;0.90;;
4278;SDS011;2153;47.744;10.580;2022-10-16T10:33:49;9.90;;;0.90;;
4278;SDS011;2153;47.744;10.580;2022-10-16T10:36:24;10.30;;;0.95;;
4278;SDS011;2153;47.744;10.580;2022-10-16T10:38:56;10.52;;;0.90;;
4278;SDS011;2153;47.744;10.580;2022-10-16T10:44:40;10.50;;;1.05;;
4278;SDS011;2153;47.744;10.580;2022-10-16T10:47:23;10.13;;;0.80;;
4278;SDS011;2153;47.744;10.580;2022-10-16T10:50:07;10.20;;;0.83;;
4278;SDS011;2153;47.744;10.580;2022-10-16T10:52:44;9.03;;;0.63;;
4278;SDS011;2153;47.744;10.580;2022-10-16T10:55:21;9.40;;;0.80;;
4278;SDS011;2153;47.744;10.580;2022-10-16T10:58:06;9.20;;;0.70;;
4278;SDS011;2153;47.744;10.580;2022-10-16T11:00:47;9.90;;;0.90;;
4278;SDS011;2153;47.744;10.580;2022-10-16T11:03:27;9.47;;;0.90;;
4278;SDS011;2153;47.744;10.580;2022-10-16T11:06:07;9.80;;;0.80;;
4278;SDS011;2153;47.744;10.580;2022-10-16T11:08:38;12.30;;;0.90;;
4278;SDS011;2153;47.744;10.580;2022-10-16T11:11:10;10.60;;;1.13;;
4278;SDS011;2153;47.744;10.580;2022-10-16T11:13:42;12.00;;;1.00;;
4278;SDS011;2153;47.744;10.580;2022-10-16T11:16:15;10.10;;;0.80;;
4278;SDS011;2153;47.744;10.580;2022-10-16T11:18:49;9.90;;;0.97;;
4278;SDS011;2153;47.744;10.580;2022-10-16T11:21:21;10.27;;;1.00;;
4278;SDS011;2153;47.744;10.580;2022-10-16T11:23:51;10.90;;;0.90;;
4278;SDS011;2153;47.744;10.580;2022-10-16T11:26:23;10.70;;;1.10;;
4278;SDS011;2153;47.744;10.580;2022-10-16T11:28:54;10.87;;;1.17;;
4278;SDS011;2153;47.744;10.580;2022-10-16T11:31:24;10.00;;;0.90;;
4278;SDS011;2153;47.744;10.580;2022-10-16T11:34:00;10.53;;;1.00;;
4278;SDS011;2153;47.744;10.580;2022-10-16T11:36:33;11.77;;;0.90;;
4278;SDS011;2153;47.744;10.580;2022-10-16T11:39:07;12.40;;;0.90;;
4278;SDS011;2153;47.744;10.580;2022-10-16T11:41:50;15.07;;;1.00;;
4278;SDS011;2153;47.744;10.580;2022-10-16T11:44:22;11.13;;;1.00;;
4278;SDS011;2153;47.744;10.580;2022-10-16T11:46:59;10.50;;;1.17;;
4278;SDS011;2153;47.744;10.580;2022-10-16T11:49:36;11.40;;;0.80;;
4278;SDS011;2153;47.744;10.580;2022-10-16T11:52:06;9.80;;;0.93;;
4278;SDS011;2153;47.744;10.580;2022-10-16T11:54:41;11.63;;;0.87;;
4278;SDS011;2153;47.744;10.580;2022-10-16T11:57:16;9.93;;;0.83;;
4278;SDS011;2153;47.744;10.580;2022-10-16T11:59:47;12.30;;;1.03;;
4278;SDS011;2153;47.744;10.580;2022-10-16T12:02:29;17.20;;;0.80;;
4278;SDS011;2153;47.744;10.580;2022-10-16T12:05:06;11.70;;;1.00;;
4278;SDS011;2153;47.744;10.580;2022-10-16T12:07:46;9.93;;;1.00;;
4278;SDS011;2153;47.744;10.580;2022-10-16T12:10:22;10.77;;;0.80;;
4278;SDS011;2153;47.744;10.580;2022-10-16T12:12:50;9.90;;;0.90;;
4278;SDS011;2153;47.744;10.580;2022-10-16T12:15:19;9.87;;;0.90;;
4278;SDS011;2153;47.744;10.580;2022-10-16T12:17:48;10.73;;;0.80;;
4278;SDS011;2153;47.744;10.580;2022-10-16T12:23:03;12.43;;;1.07;;
4278;SDS011;2153;47.744;10.580;2022-10-16T12:25:32;11.50;;;1.10;;
4278;SDS011;2153;47.744;10.580;2022-10-16T12:28:01;11.40;;;1.13;;
4278;SDS011;2153;47.744;10.580;2022-10-16T12:30:31;10.50;;;1.27;;
4278;SDS011;2153;47.744;10.580;2022-10-16T12:33:00;10.27;;;1.10;;
4278;SDS011;2153;47.744;10.580;2022-10-16T12:35:30;9.80;;;0.77;;
4278;SDS011;2153;47.744;10.580;2022-10-16T12:38:07;10.13;;;0.97;;
4278;SDS011;2153;47.744;10.580;2022-10-16T12:40:41;10.50;;;1.10;;
4278;SDS011;2153;47.744;10.580;2022-10-16T12:43:23;10.67;;;1.10;;
4278;SDS011;2153;47.744;10.580;2022-10-16T12:46:00;10.20;;;0.90;;
4278;SDS011;2153;47.744;10.580;2022-10-16T12:48:29;10.87;;;1.00;;
4278;SDS011;2153;47.744;10.580;2022-10-16T12:50:56;15.90;;;1.10;;
4278;SDS011;2153;47.744;10.580;2022-10-16T12:53:25;9.87;;;0.80;;
4278;SDS011;2153;47.744;10.580;2022-10-16T12:55:59;9.90;;;0.83;;
4278;SDS011;2153;47.744;10.580;2022-10-16T12:58:43;16.93;;;1.00;;
4278;SDS011;2153;47.744;10.580;2022-10-16T13:01:26;13.93;;;1.03;;
4278;SDS011;2153;47.744;10.580;2022-10-16T13:06:55;9.80;;;0.80;;
4278;SDS011;2153;47.744;10.580;2022-10-16T13:09:32;10.93;;;1.10;;
4278;SDS011;2153;47.744;10.580;2022-10-16T13:12:15;13.27;;;1.60;;
4278;SDS011;2153;47.744;10.580;2022-10-16T13:17:52;9.80;;;0.90;;
4278;SDS011;2153;47.744;10.580;2022-10-16T13:20:26;15.20;;;1.07;;
4278;SDS011;2153;47.744;10.580;2022-10-16T13:23:01;10.17;;;1.03;;
4278;SDS011;2153;47.744;10.580;2022-10-16T13:25:41;18.90;;;1.10;;
4278;SDS011;2153;47.744;10.580;2022-10-16T13:28:22;15.33;;;0.80;;
4278;SDS011;2153;47.744;10.580;2022-10-16T13:30:54;10.60;;;1.00;;
4278;SDS011;2153;47.744;10.580;2022-10-16T13:33:25;13.47;;;1.33;;
4278;SDS011;2153;47.744;10.580;2022-10-16T13:35:58;10.80;;;0.97;;
4278;SDS011;2153;47.744;10.580;2022-10-16T13:38:25;12.20;;;1.50;;
4278;SDS011;2153;47.744;10.580;2022-10-16T13:40:55;10.33;;;1.00;;
4278;SDS011;2153;47.744;10.580;2022-10-16T13:43:25;11.60;;;1.00;;
4278;SDS011;2153;47.744;10.580;2022-10-16T13:45:56;11.20;;;0.90;;
4278;SDS011;2153;47.744;10.580;2022-10-16T13:48:24;24.43;;;1.03;;
4278;SDS011;2153;47.744;10.580;2022-10-16T13:51:01;14.90;;;0.90;;
4278;SDS011;2153;47.744;10.580;2022-10-16T13:53:34;11.60;;;1.30;;
4278;SDS011;2153;47.744;10.580;2022-10-16T13:56:03;10.70;;;1.20;;
4278;SDS011;2153;47.744;10.580;2022-10-16T13:58:32;10.80;;;0.97;;
4278;SDS011;2153;47.744;10.580;2022-10-16T14:00:59;10.67;;;1.03;;
4278;SDS011;2153;47.744;10.580;2022-10-16T14:03:28;12.80;;;1.30;;
4278;SDS011;2153;47.744;10.580;2022-10-16T14:05:56;10.37;;;1.07;;
4278;SDS011;2153;47.744;10.580;2022-10-16T14:08:26;10.90;;;1.07;;
4278;SDS011;2153;47.744;10.580;2022-10-16T14:10:55;10.23;;;0.83;;
4278;SDS011;2153;47.744;10.580;2022-10-16T14:13:28;12.63;;;1.17;;
4278;SDS011;2153;47.744;10.580;2022-10-16T14:15:57;11.63;;;1.00;;
4278;SDS011;2153;47.744;10.580;2022-10-16T14:18:28;11.00;;;1.00;;
4278;SDS011;2153;47.744;10.580;2022-10-16T14:21:01;10.70;;;1.23;;
4278;SDS011;2153;47.744;10.580;2022-10-16T14:23:30;11.20;;;1.07;;
4278;SDS011;2153;47.744;10.580;2022-10-16T14:29:01;13.83;;;1.03;;
4278;SDS011;2153;47.744;10.580;2022-10-16T14:31:34;12.83;;;1.20;;
4278;SDS011;2153;47.744;10.580;2022-10-16T14:34:02;12.97;;;1.03;;
4278;SDS011;2153;47.744;10.580;2022-10-16T14:36:29;11.23;;;1.10;;
4278;SDS011;2153;47.744;10.580;2022-10-16T14:38:58;12.07;;;1.13;;
4278;SDS011;2153;47.744;10.580;2022-10-16T14:41:27;10.67;;;1.00;;
4278;SDS011;2153;47.744;10.580;2022-10-16T14:43:57;12.40;;;1.07;;
4278;SDS011;2153;47.744;10.580;2022-10-16T14:46:29;11.20;;;1.27;;
4278;SDS011;2153;47.744;10.580;2022-10-16T14:49:00;11.33;;;1.50;;
4278;SDS011;2153;47.744;10.580;2022-10-16T14:51:29;11.43;;;1.10;;
4278;SDS011;2153;47.744;10.580;2022-10-16T14:53:56;16.20;;;1.23;;
4278;SDS011;2153;47.744;10.580;2022-10-16T14:56:23;11.27;;;1.20;;
4278;SDS011;2153;47.744;10.580;2022-10-16T14:58:53;15.00;;;1.50;;
4278;SDS011;2153;47.744;10.580;2022-10-16T15:01:23;16.23;;;1.03;;
4278;SDS011;2153;47.744;10.580;2022-10-16T15:03:50;12.13;;;1.20;;
4278;SDS011;2153;47.744;10.580;2022-10-16T15:06:19;11.73;;;1.13;;
4278;SDS011;2153;47.744;10.580;2022-10-16T15:08:46;13.00;;;1.30;;
4278;SDS011;2153;47.744;10.580;2022-10-16T15:11:14;11.20;;;1.30;;
4278;SDS011;2153;47.744;10.580;2022-10-16T15:13:42;11.37;;;1.30;;
4278;SDS011;2153;47.744;10.580;2022-10-16T15:16:12;12.13;;;1.30;;
4278;SDS011;2153;47.744;10.580;2022-10-16T15:18:40;13.83;;;1.47;;
4278;SDS011;2153;47.744;10.580;2022-10-16T15:21:07;12.97;;;1.43;;
4278;SDS011;2153;47.744;10.580;2022-10-16T15:23:34;11.47;;;1.57;;
4278;SDS011;2153;47.744;10.580;2022-10-16T15:26:01;12.03;;;1.30;;